createdAt,value
2023-04-21T00:00:15.861Z,9.10
2023-04-21T00:02:45.283Z,9.20
2023-04-21T00:05:14.454Z,9.20
2023-04-21T00:07:42.723Z,9.20
2023-04-21T00:10:12.090Z,9.20
2023-04-21T00:12:41.338Z,9.10
2023-04-21T00:15:10.735Z,9.10
2023-04-21T00:17:40.675Z,9.10
2023-04-21T00:20:11.106Z,9.10
2023-04-21T00:22:39.544Z,9.10
2023-04-21T00:25:08.531Z,9.00
2023-04-21T00:27:36.831Z,9.00
2023-04-21T00:30:05.565Z,9.00
2023-04-21T00:32:35.173Z,9.00
2023-04-21T00:35:04.963Z,8.90
2023-04-21T00:37:33.359Z,8.90
2023-04-21T00:40:01.667Z,8.90
2023-04-21T00:42:29.833Z,8.90
2023-04-21T00:44:58.017Z,9.00
2023-04-21T00:47:26.766Z,8.90
2023-04-21T00:49:55.276Z,8.90
2023-04-21T00:52:25.237Z,8.90
2023-04-21T00:54:53.994Z,8.90
2023-04-21T00:57:22.911Z,8.90
2023-04-21T00:59:52.048Z,8.90
2023-04-21T01:02:20.932Z,8.90
2023-04-21T01:04:49.717Z,8.90
2023-04-21T01:07:18.420Z,8.80
2023-04-21T01:09:47.918Z,8.80
2023-04-21T01:12:16.337Z,8.80
2023-04-21T01:14:44.442Z,8.80
2023-04-21T01:17:12.543Z,8.90
2023-04-21T01:19:42.960Z,8.90
2023-04-21T01:22:15.346Z,8.80
2023-04-21T01:24:44.830Z,8.80
2023-04-21T01:27:13.852Z,8.70
2023-04-21T01:29:43.241Z,8.80
2023-04-21T01:32:14.130Z,8.80
2023-04-21T01:34:45.104Z,8.80
2023-04-21T01:37:16.802Z,8.70
2023-04-21T01:39:48.365Z,8.60
2023-04-21T01:42:16.481Z,8.70
2023-04-21T01:44:44.955Z,8.70
2023-04-21T01:47:13.053Z,8.60
2023-04-21T01:49:41.429Z,8.60
2023-04-21T01:52:09.596Z,8.60
2023-04-21T01:54:39.648Z,8.50
2023-04-21T01:57:07.924Z,8.50
2023-04-21T01:59:36.201Z,8.50
2023-04-21T02:02:05.102Z,8.50
2023-04-21T02:04:33.399Z,8.50
2023-04-21T02:07:02.176Z,8.50
2023-04-21T02:09:30.632Z,8.50
2023-04-21T02:12:00.363Z,8.50
2023-04-21T02:14:28.587Z,8.50
2023-04-21T02:16:57.140Z,8.50
2023-04-21T02:19:25.663Z,8.50
2023-04-21T02:21:54.038Z,8.40
2023-04-21T02:24:22.187Z,8.50
2023-04-21T02:26:50.396Z,8.50
2023-04-21T02:29:19.973Z,8.50
2023-04-21T02:32:00.682Z,8.60
2023-04-21T02:34:29.613Z,8.50
2023-04-21T02:36:57.754Z,8.50
2023-04-21T02:39:26.317Z,8.50
2023-04-21T02:41:54.526Z,8.50
2023-04-21T02:44:24.298Z,8.50
2023-04-21T02:46:52.564Z,8.40
2023-04-21T02:49:21.335Z,8.40
2023-04-21T02:51:49.655Z,8.40
2023-04-21T02:54:17.929Z,8.40
2023-04-21T02:56:46.527Z,8.50
2023-04-21T02:59:16.871Z,8.30
2023-04-21T03:01:47.926Z,8.30
2023-04-21T03:04:16.265Z,8.30
2023-04-21T03:06:44.486Z,8.30
2023-04-21T03:09:12.702Z,8.20
2023-04-21T03:11:41.165Z,8.20
2023-04-21T03:14:09.263Z,8.20
2023-04-21T03:16:37.420Z,8.20
2023-04-21T03:19:06.958Z,8.20
2023-04-21T03:21:38.559Z,8.20
2023-04-21T03:24:07.667Z,8.20
2023-04-21T03:26:35.829Z,8.10
2023-04-21T03:29:04.327Z,8.20
2023-04-21T03:31:32.627Z,8.20
2023-04-21T03:34:00.752Z,8.10
2023-04-21T03:36:31.268Z,8.10
2023-04-21T03:39:12.730Z,8.20
2023-04-21T03:41:48.168Z,8.10
2023-04-21T03:44:16.402Z,8.10
2023-04-21T03:46:44.504Z,8.00
2023-04-21T03:49:12.888Z,8.00
2023-04-21T03:51:42.669Z,8.00
2023-04-21T03:54:10.773Z,8.00
2023-04-21T03:56:38.913Z,8.00
2023-04-21T03:59:07.243Z,8.00
2023-04-21T04:01:36.012Z,8.00
2023-04-21T04:04:04.826Z,8.00
2023-04-21T04:06:33.328Z,8.00
2023-04-21T04:09:04.600Z,7.90
2023-04-21T04:11:33.021Z,7.90
2023-04-21T04:14:01.618Z,7.90
2023-04-21T04:16:30.033Z,7.90
2023-04-21T04:18:58.293Z,7.90
2023-04-21T04:21:27.839Z,7.90
2023-04-21T04:23:56.002Z,7.90
2023-04-21T04:26:26.046Z,7.90
2023-04-21T04:28:56.773Z,7.90
2023-04-21T04:31:25.922Z,7.90
2023-04-21T04:33:55.472Z,7.90
2023-04-21T04:36:24.536Z,8.00
2023-04-21T04:38:52.770Z,8.00
2023-04-21T04:41:21.302Z,8.00
2023-04-21T04:43:51.199Z,8.10
2023-04-21T04:46:20.890Z,8.20
2023-04-21T04:48:49.287Z,8.40
2023-04-21T04:51:17.937Z,8.30
2023-04-21T04:53:46.044Z,8.60
2023-04-21T04:56:14.329Z,8.80
2023-04-21T04:58:42.722Z,8.90
2023-04-21T05:01:16.969Z,8.60
2023-04-21T05:03:46.262Z,8.70
2023-04-21T05:06:15.010Z,8.70
2023-04-21T05:08:43.118Z,9.10
2023-04-21T05:11:11.498Z,9.00
2023-04-21T05:13:40.231Z,8.80
2023-04-21T05:16:11.823Z,9.10
2023-04-21T05:18:41.342Z,9.40
2023-04-21T05:21:09.536Z,9.20
2023-04-21T05:23:38.076Z,9.80
2023-04-21T05:26:06.335Z,9.30
2023-04-21T05:28:36.233Z,10.20
2023-04-21T05:31:04.711Z,9.60
2023-04-21T05:33:32.828Z,9.70
2023-04-21T05:36:02.688Z,9.80
2023-04-21T05:38:30.976Z,9.70
2023-04-21T05:40:59.089Z,10.00
2023-04-21T05:43:27.235Z,10.10
2023-04-21T05:45:55.412Z,10.50
2023-04-21T05:48:24.540Z,10.10
2023-04-21T05:50:52.698Z,10.40
2023-04-21T05:53:23.500Z,10.50
2023-04-21T05:55:52.174Z,10.80
2023-04-21T05:58:20.247Z,11.00
2023-04-21T06:00:49.234Z,11.40
2023-04-21T06:03:17.598Z,11.40
2023-04-21T06:05:46.385Z,12.00
2023-04-21T06:08:14.637Z,12.10
2023-04-21T06:10:44.422Z,11.70
2023-04-21T06:13:12.548Z,11.70
2023-04-21T06:15:40.641Z,11.50
2023-04-21T06:18:08.867Z,11.70
2023-04-21T06:20:36.959Z,11.70
2023-04-21T06:23:05.333Z,11.70
2023-04-21T06:25:33.994Z,11.80
2023-04-21T06:28:03.807Z,11.70
2023-04-21T06:30:31.921Z,11.60
2023-04-21T06:33:00.018Z,12.10
2023-04-21T06:35:28.409Z,12.00
2023-04-21T06:37:56.586Z,11.90
2023-04-21T06:40:24.977Z,11.90
2023-04-21T06:42:53.051Z,12.20
2023-04-21T06:45:23.061Z,12.20
2023-04-21T06:47:51.219Z,12.00
2023-04-21T06:50:19.768Z,11.90
2023-04-21T06:52:48.146Z,12.30
2023-04-21T06:55:16.595Z,12.60
2023-04-21T06:57:44.701Z,12.60
2023-04-21T07:00:13.976Z,12.70
2023-04-21T07:02:43.550Z,12.20
2023-04-21T07:05:11.699Z,12.50
2023-04-21T07:07:39.988Z,13.30
2023-04-21T07:10:09.216Z,13.50
2023-04-21T07:12:37.376Z,13.20
2023-04-21T07:15:06.416Z,13.20
2023-04-21T07:17:34.751Z,14.00
2023-04-21T07:20:04.403Z,13.30
2023-04-21T07:22:32.498Z,13.40
2023-04-21T07:25:00.589Z,13.60
2023-04-21T07:27:28.740Z,13.80
2023-04-21T07:29:57.132Z,14.10
2023-04-21T07:32:25.395Z,14.40
2023-04-21T07:34:53.523Z,14.00
2023-04-21T07:37:24.513Z,14.10
2023-04-21T07:39:53.259Z,14.20
2023-04-21T07:42:21.960Z,14.60
2023-04-21T07:44:50.053Z,14.90
2023-04-21T07:47:18.422Z,14.40
2023-04-21T07:49:46.746Z,14.30
2023-04-21T07:52:14.846Z,14.80
2023-04-21T07:54:44.692Z,15.10
2023-04-21T07:57:13.266Z,14.70
2023-04-21T07:59:41.347Z,15.10
2023-04-21T08:02:10.304Z,15.50
2023-04-21T08:04:38.852Z,15.90
2023-04-21T08:07:07.808Z,15.30
2023-04-21T08:09:35.989Z,15.70
2023-04-21T08:12:05.992Z,15.80
2023-04-21T08:14:34.093Z,15.70
2023-04-21T08:17:02.245Z,15.50
2023-04-21T08:19:30.384Z,15.80
2023-04-21T08:21:58.710Z,15.80
2023-04-21T08:24:26.870Z,16.20
2023-04-21T08:26:54.983Z,16.40
2023-04-21T08:29:24.715Z,16.40
2023-04-21T08:31:52.962Z,16.90
2023-04-21T08:34:22.570Z,16.70
2023-04-21T08:36:52.438Z,16.40
2023-04-21T08:39:20.717Z,16.30
2023-04-21T08:41:49.444Z,16.50
2023-04-21T08:44:19.388Z,16.90
2023-04-21T08:46:50.756Z,16.90
2023-04-21T08:49:22.052Z,16.80
2023-04-21T08:51:50.630Z,16.80
2023-04-21T08:54:18.745Z,16.50
2023-04-21T08:56:48.848Z,16.80
2023-04-21T08:59:17.014Z,17.40
2023-04-21T09:02:10.186Z,17.50
2023-04-21T09:04:41.186Z,18.10
2023-04-21T09:07:09.722Z,17.40
2023-04-21T09:09:54.109Z,17.30
2023-04-21T09:12:22.552Z,17.30
2023-04-21T09:14:50.663Z,17.70
2023-04-21T09:17:28.763Z,18.00
2023-04-21T09:19:56.938Z,18.10
2023-04-21T09:22:29.568Z,18.70
2023-04-21T09:25:00.225Z,18.30
2023-04-21T09:27:29.452Z,18.10
2023-04-21T09:30:04.134Z,17.80
2023-04-21T09:32:37.796Z,18.00
2023-04-21T09:35:07.033Z,18.70
2023-04-21T09:37:35.512Z,18.60
2023-04-21T09:40:05.351Z,18.70
2023-04-21T09:42:39.242Z,19.10
2023-04-21T09:45:29.111Z,18.90
2023-04-21T09:48:02.529Z,18.40
2023-04-21T09:53:07.385Z,18.80
2023-04-21T09:55:36.966Z,19.20
2023-04-21T09:58:09.697Z,18.90
2023-04-21T10:00:40.126Z,18.70
2023-04-21T10:03:12.469Z,19.30
2023-04-21T10:05:42.877Z,19.10
2023-04-21T10:08:13.021Z,19.10
2023-04-21T10:10:41.470Z,19.00
2023-04-21T10:13:15.956Z,19.60
2023-04-21T10:15:44.167Z,19.30
2023-04-21T10:18:18.684Z,19.20
2023-04-21T10:20:57.300Z,19.20
2023-04-21T10:23:30.248Z,19.60
2023-04-21T10:26:07.243Z,20.00
2023-04-21T10:28:46.144Z,19.20
2023-04-21T10:31:22.383Z,19.90
2023-04-21T10:34:29.520Z,19.50
2023-04-21T10:37:17.498Z,19.40
2023-04-21T10:39:55.225Z,19.80
2023-04-21T10:42:28.731Z,19.40
2023-04-21T10:45:08.740Z,19.50
2023-04-21T10:47:43.200Z,19.50
2023-04-21T10:50:23.208Z,19.80
2023-04-21T10:52:58.147Z,19.80
2023-04-21T10:55:31.097Z,19.30
2023-04-21T10:58:02.441Z,19.60
2023-04-21T11:00:30.626Z,20.10
2023-04-21T11:03:01.981Z,19.80
2023-04-21T11:05:32.461Z,20.10
2023-04-21T11:08:06.353Z,19.90
2023-04-21T11:10:44.624Z,20.40
2023-04-21T11:13:12.723Z,20.20
2023-04-21T11:15:41.475Z,20.20
2023-04-21T11:18:10.178Z,20.10
2023-04-21T11:20:42.417Z,19.70
2023-04-21T11:23:18.411Z,19.90
2023-04-21T11:25:49.460Z,19.80
2023-04-21T11:28:23.420Z,20.00
2023-04-21T11:30:51.657Z,20.20
2023-04-21T11:33:20.266Z,20.30
2023-04-21T11:35:49.682Z,19.90
2023-04-21T11:38:19.195Z,20.10
2023-04-21T11:40:48.450Z,21.10
2023-04-21T11:43:16.802Z,20.50
2023-04-21T11:45:44.972Z,20.40
2023-04-21T11:48:17.437Z,20.00
2023-04-21T11:50:49.310Z,20.20
2023-04-21T11:53:20.192Z,20.20
2023-04-21T11:55:48.431Z,20.20
2023-04-21T11:58:18.061Z,19.90
2023-04-21T12:00:47.097Z,20.10
2023-04-21T12:03:15.634Z,20.00
2023-04-21T12:05:43.929Z,20.20
2023-04-21T12:08:16.490Z,20.00
2023-04-21T12:10:50.543Z,20.40
2023-04-21T12:13:24.116Z,20.50
2023-04-21T12:15:52.326Z,20.50
2023-04-21T12:18:20.592Z,20.30
2023-04-21T12:20:52.889Z,20.20
2023-04-21T12:23:21.349Z,20.20
2023-04-21T12:25:51.709Z,20.50
2023-04-21T12:28:19.826Z,19.60
2023-04-21T12:30:48.009Z,19.60
2023-04-21T12:33:16.218Z,19.30
2023-04-21T12:35:44.681Z,19.70
2023-04-21T12:38:13.148Z,19.70
2023-04-21T12:40:41.450Z,19.90
2023-04-21T12:43:11.216Z,20.20
2023-04-21T12:45:39.348Z,20.10
2023-04-21T12:48:07.629Z,20.00
2023-04-21T12:50:35.770Z,20.40
2023-04-21T12:53:04.041Z,20.10
2023-04-21T12:55:32.270Z,19.60
2023-04-21T12:58:00.489Z,19.60
2023-04-21T13:00:30.213Z,19.90
2023-04-21T13:02:58.493Z,19.90
2023-04-21T13:05:26.759Z,20.00
2023-04-21T13:07:55.726Z,20.10
2023-04-21T13:10:25.210Z,20.50
2023-04-21T13:12:53.386Z,20.60
2023-04-21T13:15:21.619Z,20.20
2023-04-21T13:17:51.093Z,20.20
2023-04-21T13:20:20.653Z,20.30
2023-04-21T13:22:49.000Z,20.50
2023-04-21T13:25:17.307Z,20.40
2023-04-21T13:27:46.841Z,20.20
2023-04-21T13:30:16.383Z,20.40
2023-04-21T13:32:45.484Z,20.40
2023-04-21T13:35:15.017Z,20.20
2023-04-21T13:37:43.212Z,20.60
2023-04-21T13:40:12.469Z,20.40
2023-04-21T13:42:40.979Z,20.90
2023-04-21T13:45:10.391Z,20.50
2023-04-21T13:47:38.825Z,20.20
2023-04-21T13:50:09.278Z,20.20
2023-04-21T13:52:38.882Z,20.50
2023-04-21T13:55:07.874Z,20.60
2023-04-21T13:57:36.371Z,20.20
2023-04-21T14:00:06.707Z,20.40
2023-04-21T14:02:35.092Z,20.60
2023-04-21T14:05:03.907Z,20.40
2023-04-21T14:07:32.569Z,20.40
2023-04-21T14:10:02.891Z,20.40
2023-04-21T14:12:31.094Z,20.00
2023-04-21T14:14:59.551Z,20.30
2023-04-21T14:17:28.165Z,20.30
2023-04-21T14:19:56.349Z,20.20
2023-04-21T14:22:24.892Z,20.40
2023-04-21T14:24:53.233Z,20.20
2023-04-21T14:27:22.864Z,20.20
2023-04-21T14:29:51.088Z,20.50
2023-04-21T14:32:20.712Z,20.50
2023-04-21T14:34:53.282Z,20.60
2023-04-21T14:37:22.696Z,20.70
2023-04-21T14:39:51.170Z,20.50
2023-04-21T14:42:20.250Z,20.50
2023-04-21T14:44:49.809Z,20.40
2023-04-21T14:47:18.073Z,20.30
2023-04-21T14:49:46.375Z,20.60
2023-04-21T14:52:14.902Z,20.30
2023-04-21T14:54:43.310Z,20.30
2023-04-21T14:57:20.511Z,20.50
2023-04-21T14:59:51.958Z,20.40
2023-04-21T15:02:21.469Z,20.40
2023-04-21T15:04:50.889Z,20.20
2023-04-21T15:07:23.923Z,20.00
2023-04-21T15:09:53.693Z,19.90
2023-04-21T15:12:22.181Z,20.10
2023-04-21T15:14:51.692Z,20.10
2023-04-21T15:17:19.916Z,20.30
2023-04-21T15:19:48.017Z,20.20
2023-04-21T15:22:16.306Z,20.10
2023-04-21T15:24:44.460Z,20.10
2023-04-21T15:27:12.576Z,20.20
2023-04-21T15:29:40.729Z,20.10
2023-04-21T15:32:11.283Z,20.10
2023-04-21T15:34:39.672Z,20.10
2023-04-21T15:37:07.846Z,20.00
2023-04-21T15:39:36.259Z,20.00
2023-04-21T15:42:05.066Z,20.10
2023-04-21T15:44:34.073Z,20.00
2023-04-21T15:47:02.796Z,20.10
2023-04-21T15:49:32.615Z,20.10
2023-04-21T15:52:00.881Z,20.00
2023-04-21T15:54:29.050Z,19.90
2023-04-21T15:56:57.652Z,20.00
2023-04-21T15:59:26.405Z,19.90
2023-04-21T16:01:54.818Z,19.80
2023-04-21T16:04:23.574Z,19.90
2023-04-21T16:06:53.605Z,19.90
2023-04-21T16:09:22.250Z,19.80
2023-04-21T16:11:51.795Z,19.90
2023-04-21T16:14:20.184Z,19.90
2023-04-21T16:16:48.428Z,19.90
2023-04-21T16:19:16.672Z,19.90
2023-04-21T16:21:45.247Z,19.90
2023-04-21T16:24:14.844Z,19.80
2023-04-21T16:26:42.948Z,19.70
2023-04-21T16:29:11.409Z,19.70
2023-04-21T16:31:39.573Z,19.70
2023-04-21T16:34:08.407Z,19.80
2023-04-21T16:36:37.107Z,19.90
2023-04-21T16:39:05.757Z,19.70
2023-04-21T16:41:35.558Z,19.70
2023-04-21T16:44:03.812Z,19.70
2023-04-21T16:46:32.057Z,19.70
2023-04-21T16:49:00.382Z,19.60
2023-04-21T16:51:28.813Z,19.60
2023-04-21T16:53:57.419Z,19.50
2023-04-21T16:56:25.588Z,19.50
2023-04-21T16:58:55.072Z,19.40
2023-04-21T17:01:23.265Z,19.40
2023-04-21T17:03:51.474Z,19.20
2023-04-21T17:06:21.675Z,19.20
2023-04-21T17:08:49.978Z,19.10
2023-04-21T17:11:18.133Z,19.00
2023-04-21T17:13:46.282Z,19.00
2023-04-21T17:16:15.908Z,18.80
2023-04-21T17:18:44.018Z,18.70
2023-04-21T17:21:12.894Z,18.60
2023-04-21T17:23:41.071Z,18.60
2023-04-21T17:26:11.600Z,18.60
2023-04-21T17:28:41.475Z,18.50
2023-04-21T17:31:15.934Z,18.50
2023-04-21T17:33:46.804Z,18.40
2023-04-21T17:36:16.885Z,18.40
2023-04-21T17:38:45.595Z,18.40
2023-04-21T17:41:13.792Z,18.40
2023-04-21T17:43:41.896Z,18.30
2023-04-21T17:46:10.103Z,18.20
2023-04-21T17:48:39.393Z,18.10
2023-04-21T17:51:09.726Z,18.10
2023-04-21T17:53:38.033Z,18.00
2023-04-21T17:56:06.225Z,17.90
2023-04-21T17:58:34.970Z,17.80
2023-04-21T18:01:03.099Z,17.80
2023-04-21T18:03:31.322Z,17.70
2023-04-21T18:05:59.779Z,17.70
2023-04-21T18:08:29.564Z,17.50
2023-04-21T18:10:57.920Z,17.50
2023-04-21T18:13:26.098Z,17.40
2023-04-21T18:15:54.222Z,17.40
2023-04-21T18:18:22.352Z,17.30
2023-04-21T18:20:50.451Z,17.20
2023-04-21T18:23:18.576Z,17.20
2023-04-21T18:25:48.048Z,17.10
2023-04-21T18:28:16.180Z,17.10
2023-04-21T18:30:44.421Z,17.00
2023-04-21T18:33:12.694Z,16.90
2023-04-21T18:35:42.377Z,16.80
2023-04-21T18:38:11.653Z,16.80
2023-04-21T18:40:40.756Z,16.70
2023-04-21T18:43:11.083Z,16.70
2023-04-21T18:45:39.731Z,16.60
2023-04-21T18:48:08.119Z,16.50
2023-04-21T18:50:39.928Z,16.50
2023-04-21T18:53:09.550Z,16.40
2023-04-21T18:55:38.007Z,16.40
2023-04-21T18:58:06.229Z,16.30
2023-04-21T19:00:38.923Z,16.20
2023-04-21T19:03:07.695Z,16.10
2023-04-21T19:05:37.324Z,16.00
2023-04-21T19:08:05.689Z,15.90
2023-04-21T19:10:35.530Z,15.90
2023-04-21T19:13:03.635Z,15.80
2023-04-21T19:15:31.795Z,15.70
2023-04-21T19:18:01.679Z,15.70
2023-04-21T19:20:30.848Z,15.60
2023-04-21T19:22:59.027Z,15.60
2023-04-21T19:25:27.125Z,15.40
2023-04-21T19:27:55.287Z,15.40
2023-04-21T19:30:23.685Z,15.40
2023-04-21T19:32:51.844Z,15.40
2023-04-21T19:35:21.561Z,15.30
2023-04-21T19:37:49.667Z,15.30
2023-04-21T19:40:17.886Z,15.20
2023-04-21T19:42:46.055Z,15.10
2023-04-21T19:45:14.208Z,15.10
2023-04-21T19:47:42.320Z,15.10
2023-04-21T19:50:11.845Z,14.90
2023-04-21T19:52:41.855Z,14.80
2023-04-21T19:55:10.718Z,14.80
2023-04-21T19:57:38.839Z,14.70
2023-04-21T20:00:09.384Z,14.50
2023-04-21T20:02:37.761Z,14.50
2023-04-21T20:05:07.384Z,14.50
2023-04-21T20:07:35.865Z,14.50
2023-04-21T20:10:06.119Z,14.50
2023-04-21T20:12:34.468Z,14.40
2023-04-21T20:15:03.023Z,14.30
2023-04-21T20:17:32.518Z,14.30
2023-04-21T20:20:01.278Z,14.30
2023-04-21T20:22:29.837Z,14.30
2023-04-21T20:24:58.304Z,14.20
2023-04-21T20:27:28.397Z,14.10
2023-04-21T20:29:56.531Z,14.00
2023-04-21T20:32:24.677Z,14.00
2023-04-21T20:34:53.662Z,13.90
2023-04-21T20:37:23.090Z,13.80
2023-04-21T20:39:51.345Z,13.80
2023-04-21T20:42:20.229Z,13.90
2023-04-21T20:44:49.719Z,13.80
2023-04-21T20:47:17.925Z,13.80
2023-04-21T20:49:47.741Z,13.70
2023-04-21T20:52:15.997Z,13.70
2023-04-21T20:54:44.349Z,13.70
2023-04-21T20:57:12.601Z,13.60
2023-04-21T20:59:41.276Z,13.70
2023-04-21T21:02:10.898Z,13.60
2023-04-21T21:04:39.213Z,13.60
2023-04-21T21:07:07.836Z,13.50
2023-04-21T21:09:36.476Z,13.50
2023-04-21T21:12:05.182Z,13.50
2023-04-21T21:14:33.287Z,13.50
2023-04-21T21:17:01.725Z,13.50
2023-04-21T21:19:31.341Z,13.40
2023-04-21T21:21:59.799Z,13.30
2023-04-21T21:24:28.854Z,13.30
2023-04-21T21:26:57.702Z,13.30
2023-04-21T21:29:26.127Z,13.20
2023-04-21T21:31:54.303Z,13.30
2023-04-21T21:34:22.704Z,13.20
2023-04-21T21:36:52.488Z,13.20
2023-04-21T21:39:20.668Z,13.10
2023-04-21T21:41:48.759Z,13.00
2023-04-21T21:44:17.189Z,13.00
2023-04-21T21:46:45.380Z,12.90
2023-04-21T21:49:13.576Z,12.90
2023-04-21T21:51:41.924Z,12.90
2023-04-21T21:54:11.546Z,12.80
2023-04-21T21:56:39.664Z,12.70
2023-04-21T21:59:08.469Z,12.70
2023-04-21T22:01:36.693Z,12.70
2023-04-21T22:04:05.108Z,12.60
2023-04-21T22:06:34.779Z,12.60
2023-04-21T22:09:03.768Z,12.60
2023-04-21T22:11:33.464Z,12.60
2023-04-21T22:14:14.542Z,12.50
2023-04-21T22:16:50.901Z,12.50
2023-04-21T22:19:20.147Z,12.50
2023-04-21T22:21:48.340Z,12.40
2023-04-21T22:24:16.916Z,12.40
2023-04-21T22:26:46.598Z,12.30
2023-04-21T22:29:14.892Z,12.30
2023-04-21T22:31:43.208Z,12.30
2023-04-21T22:34:14.943Z,12.20
2023-04-21T22:36:43.554Z,12.20
2023-04-21T22:39:11.899Z,12.20
2023-04-21T22:41:40.155Z,12.20
2023-04-21T22:44:10.166Z,12.20
2023-04-21T22:46:38.336Z,12.10
2023-04-21T22:49:06.980Z,12.10
2023-04-21T22:51:35.396Z,12.00
2023-04-21T22:54:03.476Z,12.00
2023-04-21T22:56:32.280Z,12.00
2023-04-21T22:59:00.793Z,12.00
2023-04-21T23:01:32.038Z,12.00
2023-04-21T23:04:00.579Z,12.00
2023-04-21T23:06:28.984Z,11.90
2023-04-21T23:08:57.047Z,11.90
2023-04-21T23:11:25.303Z,11.90
2023-04-21T23:13:53.504Z,11.80
2023-04-21T23:16:21.877Z,11.80
2023-04-21T23:18:51.368Z,11.70
2023-04-21T23:21:19.503Z,11.70
2023-04-21T23:23:47.916Z,11.60
2023-04-21T23:26:16.037Z,11.60
2023-04-21T23:28:44.133Z,11.60
2023-04-21T23:31:12.573Z,11.60
2023-04-21T23:33:40.676Z,11.60
2023-04-21T23:36:10.648Z,11.60
2023-04-21T23:38:38.726Z,11.70
2023-04-21T23:41:07.240Z,11.60
2023-04-21T23:43:37.202Z,11.60
2023-04-21T23:46:05.492Z,11.70
2023-04-21T23:48:34.295Z,11.70
2023-04-21T23:51:02.656Z,11.80
2023-04-21T23:53:32.164Z,11.70
2023-04-21T23:56:00.670Z,11.60
2023-04-21T23:58:28.761Z,11.50
